Pagina principale
METAR-TAF:

METAR-TAF

Aeroporti :

Pantelleria, Italia

Aeroporto di Pantelleria

latitudine: 36-49N, longitudine: 011-58E, altezza: 191 m

Osservazione

Il bollettino è stato emesso 45 minuti fa, alle 08:55 UTC
Vento 5 kt da nord
Temperature 21°C
Umidità 83%
Pressione 1018 hPa
Visibilità 10 km o più
Poco nuvoloso ad un'altezza di 1500 ft

METAR: LICG 290855Z 35005KT 9999 FEW015 21/18 Q1018 RMK FEW VIS MIN 9999 WIND THR08 /////KT WIND THR21 02006KT BLU

Ora: 11:40 (09:40 UTC)

Previsione

Il bollettino è stato emesso 1 ora e 40 minuti fa, alle 08:00 UTC
Previsione valida dal 29 alle 09 UTC al 29 alle 18 UTC
Vento 10 kt da sud/sud-est
Visibilità 10 km o più
nessuna nube inferiore a 1500 m e nessun cumulonembo

TAF: LICG 290800Z 2909/2918 15010KT CAVOK

Osservazioni e previsioni meteorologiche di più di 4000 aeroporti (messaggi METAR e TAF).

Le stazioni disponibili sono rappresentate dai dischi gialli e rossi sulla carta.

Puntare il mouse per vedere il nome della stazione.

Clicca sopra per visualizzare le osservazioni e previsioni meteorologiche.

Per cambiare la mappa : fare clic sui pulsanti verdi con una croce nera per ingrandire, il pulsante verde con un trattino per diminuire, o sulla freccia verde per le mappe adiacenti.


METAR-TAF: